Lady Su — 9LU2015 — position and weather

sailwx.info

Track history (hours):
 
Tides and Currents Weather Stations Pressure Air Temp Water Temp Dewpoint Dewpoint Depression Visibility Wind Speed Wind Dir Waves Ship Positions

Lady Su

Last reported at 2017-Sep-21 00:00 UTC. Time now 2017-Sep-24 05:13 UTC.
Position N 35°42' E 033°30'.

Length 34 m; draft 4.5 m.

Type: Passenger vessel. MMSI: 667001212.

Date/timePositionNaut miles runAvg speedWind from/ knotsBaromVisibWave heightAir tempDewpointWater temp
2017-Sep-21 00:00N 35°42' E 033°30'1412.6
2017-Sep-20 22:54N 35°30' E 033°24'  
2017-Sep-14 15:56N 36°19' E 033°54'3812.0
2017-Sep-14 12:44N 35°44' E 033°34'312.9
2017-Sep-14 12:30N 35°41' E 033°32'612.9
2017-Sep-14 12:00N 35°35' E 033°29'712.9
2017-Sep-14 11:30N 35°29' E 033°26'612.8
2017-Sep-14 11:00N 35°24' E 033°22'3 6.7
2017-Sep-14 10:30N 35°21' E 033°20'0 0.0
2017-Sep-14 10:00N 35°21' E 033°20'0 0.0
2017-Sep-14 09:30N 35°21' E 033°20'0 0.0
2017-Sep-14 07:03N 35°21' E 033°20'0 0.0
2017-Sep-14 07:00N 35°21' E 033°20'0 0.0
2017-Sep-14 06:30N 35°21' E 033°20'0 0.0
2017-Sep-14 05:54N 35°21' E 033°20'0 0.0
2017-Sep-14 05:18N 35°21' E 033°20'0 0.2
2017-Sep-14 04:57N 35°21' E 033°20'610.0
2017-Sep-14 04:23N 35°26' E 033°24'512.3
2017-Sep-14 04:01N 35°30' E 033°26'812.1
2017-Sep-14 03:23N 35°37' E 033°29'512.0
2017-Sep-14 02:59N 35°41' E 033°32'42 5.8
2017-Sep-13 19:48N 36°19' E 033°54'0 0.1
2017-Sep-13 17:27N 36°19' E 033°54'4111.9
2017-Sep-13 14:02N 35°44' E 033°28'013.1
2017-Sep-13 14:00N 35°44' E 033°28'713.4
2017-Sep-13 13:29N 35°38' E 033°23'1013.1
2017-Sep-13 12:42N 35°27' E 033°22'412.8
2017-Sep-13 12:25N 35°24' E 033°21'3 3.6
2017-Sep-13 11:29N 35°21' E 033°20'0 0.0
2017-Sep-12 07:00N 35°21' E 033°20'0 0.0
2017-Sep-12 06:30N 35°21' E 033°20'0 0.0
2017-Sep-12 06:00N 35°21' E 033°20'0 0.0
2017-Sep-12 05:30N 35°21' E 033°20'0 0.5
2017-Sep-12 05:00N 35°21' E 033°20'611.1
2017-Sep-12 04:30N 35°26' E 033°23'612.4
2017-Sep-12 04:00N 35°31' E 033°26'12 0.8
2017-Sep-11 12:41N 35°42' E 033°32'213.1
2017-Sep-11 12:30N 35°40' E 033°31'713.3
2017-Sep-11 12:00N 35°34' E 033°28'713.1
2017-Sep-11 11:30N 35°28' E 033°24'612.9
2017-Sep-11 11:00N 35°22' E 033°21'2 3.1
2017-Sep-11 10:29N 35°21' E 033°20'0 0.0
2017-Sep-11 09:59N 35°21' E 033°20'0 0.0
2017-Sep-11 09:29N 35°21' E 033°20'0 0.0
2017-Sep-11 08:59N 35°21' E 033°20'0 0.0
2017-Sep-11 08:26N 35°21' E 033°20'0 0.0
2017-Sep-11 07:56N 35°21' E 033°20'0 0.0
2017-Sep-11 07:29N 35°21' E 033°20'0 0.0
2017-Sep-11 06:59N 35°21' E 033°20'0 0.0
2017-Sep-11 06:29N 35°21' E 033°20'0 0.0
2017-Sep-11 05:53N 35°21' E 033°20'1 3.9
2017-Sep-11 05:31N 35°21' E 033°22'612.5
2017-Sep-11 05:00N 35°27' E 033°25'612.2
2017-Sep-11 04:31N 35°33' E 033°28'  
Track history (hours):
 
Tides and Currents Weather Stations Pressure Air Temp Water Temp Dewpoint Dewpoint Depression Visibility Wind Speed Wind Dir Waves Ship Positions

Lady Su

Last reported at 2017-Sep-21 00:00 UTC. Time now 2017-Sep-24 05:13 UTC.
Position N 35°42' E 033°30'.

Length 34 m; draft 4.5 m.

Type: Passenger vessel. MMSI: 667001212.

Date/timePositionNaut miles runAvg speedWind from/ knotsBaromVisibWave heightAir tempDewpointWater temp
2017-Sep-21 00:00N 35°42' E 033°30'1412.6
2017-Sep-20 22:54N 35°30' E 033°24'  
2017-Sep-14 15:56N 36°19' E 033°54'3812.0
2017-Sep-14 12:44N 35°44' E 033°34'312.9
2017-Sep-14 12:30N 35°41' E 033°32'612.9
2017-Sep-14 12:00N 35°35' E 033°29'712.9
2017-Sep-14 11:30N 35°29' E 033°26'612.8
2017-Sep-14 11:00N 35°24' E 033°22'3 6.7
2017-Sep-14 10:30N 35°21' E 033°20'0 0.0
2017-Sep-14 10:00N 35°21' E 033°20'0 0.0
2017-Sep-14 09:30N 35°21' E 033°20'0 0.0
2017-Sep-14 07:03N 35°21' E 033°20'0 0.0
2017-Sep-14 07:00N 35°21' E 033°20'0 0.0
2017-Sep-14 06:30N 35°21' E 033°20'0 0.0
2017-Sep-14 05:54N 35°21' E 033°20'0 0.0
2017-Sep-14 05:18N 35°21' E 033°20'0 0.2
2017-Sep-14 04:57N 35°21' E 033°20'610.0
2017-Sep-14 04:23N 35°26' E 033°24'512.3
2017-Sep-14 04:01N 35°30' E 033°26'812.1
2017-Sep-14 03:23N 35°37' E 033°29'512.0
2017-Sep-14 02:59N 35°41' E 033°32'42 5.8
2017-Sep-13 19:48N 36°19' E 033°54'0 0.1
2017-Sep-13 17:27N 36°19' E 033°54'4111.9
2017-Sep-13 14:02N 35°44' E 033°28'013.1
2017-Sep-13 14:00N 35°44' E 033°28'713.4
2017-Sep-13 13:29N 35°38' E 033°23'1013.1
2017-Sep-13 12:42N 35°27' E 033°22'412.8
2017-Sep-13 12:25N 35°24' E 033°21'3 3.6
2017-Sep-13 11:29N 35°21' E 033°20'0 0.0
2017-Sep-12 07:00N 35°21' E 033°20'0 0.0
2017-Sep-12 06:30N 35°21' E 033°20'0 0.0
2017-Sep-12 06:00N 35°21' E 033°20'0 0.0
2017-Sep-12 05:30N 35°21' E 033°20'0 0.5
2017-Sep-12 05:00N 35°21' E 033°20'611.1
2017-Sep-12 04:30N 35°26' E 033°23'612.4
2017-Sep-12 04:00N 35°31' E 033°26'12 0.8
2017-Sep-11 12:41N 35°42' E 033°32'213.1
2017-Sep-11 12:30N 35°40' E 033°31'713.3
2017-Sep-11 12:00N 35°34' E 033°28'713.1
2017-Sep-11 11:30N 35°28' E 033°24'612.9
2017-Sep-11 11:00N 35°22' E 033°21'2 3.1
2017-Sep-11 10:29N 35°21' E 033°20'0 0.0
2017-Sep-11 09:59N 35°21' E 033°20'0 0.0
2017-Sep-11 09:29N 35°21' E 033°20'0 0.0
2017-Sep-11 08:59N 35°21' E 033°20'0 0.0
2017-Sep-11 08:26N 35°21' E 033°20'0 0.0
2017-Sep-11 07:56N 35°21' E 033°20'0 0.0
2017-Sep-11 07:29N 35°21' E 033°20'0 0.0
2017-Sep-11 06:59N 35°21' E 033°20'0 0.0
2017-Sep-11 06:29N 35°21' E 033°20'0 0.0
2017-Sep-11 05:53N 35°21' E 033°20'1 3.9
2017-Sep-11 05:31N 35°21' E 033°22'612.5
2017-Sep-11 05:00N 35°27' E 033°25'612.2
2017-Sep-11 04:31N 35°33' E 033°28'  

Dump ship's entire track history